Terminal Aerodrome Forecast
Issued by NWS Paducah, KY

Home | Current Version | Previous Version | Graphics & Text | Print | Product List | Glossary On
Versions: 1 2 3 4 5 6 7 8 9 10 11 12 13 14 15 16 17
000
FTUS43 KPAH 252300 AAA
TAFEVV
TAF AMD
KEVV 252346Z 2600/2624 01003KT P6SM SCT027
     FM260200 00000KT P6SM SCT200
     FM261600 11005KT P6SM BKN100
     FM262100 09003KT P6SM OVC040 PROB30 2621/2624 -RA=

USA.gov is the U.S. government's official web portal to all federal, state and local government web resources and services.